La Fayette, Ohio
Current Conditions -  °F | °C
As of 11:53 PM on Monday 20 Oct 2014 (Local Time) from KAOH Reporting Station
Haze Haze  
Wind Chill: 51°   Ceiling: Unl
Heat Index: 51°   Visibility: 6mi
Dew Point: 48°   Wind: 7mph
Humidity: 89%   Direction: 310°NW
Pressure: 29.89"   Gusts: NA
Location:  40.7587°N, 83.949°W
Report Text: KAOH 210353Z AUTO 31006KT 6SM BR FEW080 11/09 A2989 RMK AO2 SLP123 T01060089
Loading
Personal Weather Stations






























Interactive Weather Map
Tropical Storm Tracking
New forecast layout! Learn more

10-Day Weather Forecast

Advertisements
Track Severe Weather on mobile